createdAt,value
2022-11-12T00:01:00.744Z,23.48
2022-11-12T00:03:27.348Z,24.73
2022-11-12T00:05:54.234Z,24.38
2022-11-12T00:08:20.964Z,24.10
2022-11-12T00:10:47.701Z,23.83
2022-11-12T00:13:14.766Z,25.05
2022-11-12T00:15:41.882Z,27.55
2022-11-12T00:18:08.723Z,26.00
2022-11-12T00:20:35.733Z,26.98
2022-11-12T00:23:02.296Z,28.48
2022-11-12T00:25:29.083Z,26.85
2022-11-12T00:28:04.987Z,27.40
2022-11-12T00:30:31.726Z,26.75
2022-11-12T00:33:41.756Z,28.30
2022-11-12T00:36:36.733Z,26.73
2022-11-12T00:39:04.177Z,28.63
2022-11-12T00:41:30.611Z,28.30
2022-11-12T00:43:57.115Z,29.50
2022-11-12T00:46:23.725Z,27.48
2022-11-12T00:48:50.176Z,28.08
2022-11-12T00:51:16.742Z,29.33
2022-11-12T00:53:43.184Z,33.88
2022-11-12T00:56:09.979Z,30.42
2022-11-12T00:58:36.614Z,28.92
2022-11-12T01:01:12.851Z,35.17
2022-11-12T01:03:40.908Z,34.97
2022-11-12T01:06:10.745Z,35.45
2022-11-12T01:08:37.381Z,30.33
2022-11-12T01:11:14.153Z,29.08
2022-11-12T01:13:44.433Z,32.30
2022-11-12T01:16:19.992Z,28.95
2022-11-12T01:18:47.595Z,30.30
2022-11-12T01:21:14.710Z,29.17
2022-11-12T01:23:43.232Z,31.15
2022-11-12T01:26:12.690Z,36.80
2022-11-12T01:29:00.913Z,33.28
2022-11-12T01:32:17.045Z,34.90
2022-11-12T01:35:20.709Z,36.08
2022-11-12T01:37:47.151Z,32.00
2022-11-12T01:40:14.607Z,30.02
2022-11-12T01:42:41.131Z,33.85
2022-11-12T01:45:17.821Z,30.85
2022-11-12T01:48:46.863Z,31.58
2022-11-12T02:03:23.969Z,31.40
2022-11-12T02:06:21.570Z,36.33
2022-11-12T02:08:51.604Z,36.70
2022-11-12T02:14:47.793Z,40.35
2022-11-12T02:17:14.252Z,36.92
2022-11-12T02:19:40.660Z,44.15
2022-11-12T02:22:07.041Z,62.10
2022-11-12T02:24:34.960Z,52.78
2022-11-12T02:27:01.739Z,46.80
2022-11-12T02:29:28.222Z,33.00
2022-11-12T02:31:54.721Z,29.73
2022-11-12T02:34:21.159Z,30.90
2022-11-12T02:36:47.580Z,34.92
2022-11-12T02:39:14.064Z,29.48
2022-11-12T02:41:40.491Z,30.05
2022-11-12T02:44:06.927Z,31.63
2022-11-12T02:46:33.357Z,34.38
2022-11-12T02:48:59.787Z,32.45
2022-11-12T02:51:26.225Z,33.45
2022-11-12T02:53:52.658Z,30.75
2022-11-12T02:56:19.112Z,32.03
2022-11-12T02:58:45.566Z,31.13
2022-11-12T03:01:11.999Z,31.08
2022-11-12T03:03:38.472Z,34.60
2022-11-12T03:06:05.243Z,28.63
2022-11-12T03:08:31.662Z,30.20
2022-11-12T03:10:58.146Z,28.75
2022-11-12T03:13:24.574Z,27.17
2022-11-12T03:15:59.266Z,29.05
2022-11-12T03:18:26.024Z,28.02
2022-11-12T03:20:52.634Z,28.92
2022-11-12T03:23:19.093Z,29.27
2022-11-12T03:25:45.593Z,29.35
2022-11-12T03:28:14.051Z,29.73
2022-11-12T03:30:42.755Z,30.98
2022-11-12T03:33:11.746Z,30.60
2022-11-12T03:35:39.106Z,32.50
2022-11-12T03:38:06.374Z,32.58
2022-11-12T03:40:33.568Z,32.50
2022-11-12T03:43:00.008Z,35.75
2022-11-12T03:45:28.085Z,33.90
2022-11-12T03:47:56.853Z,34.08
2022-11-12T03:50:27.389Z,34.92
2022-11-12T03:52:56.563Z,33.37
2022-11-12T03:55:25.608Z,29.45
2022-11-12T03:57:53.560Z,30.33
2022-11-12T04:00:21.587Z,36.22
2022-11-12T04:02:48.644Z,31.77
2022-11-12T04:05:33.677Z,34.25
2022-11-12T04:08:20.976Z,33.47
2022-11-12T04:10:47.784Z,34.50
2022-11-12T04:13:29.698Z,37.03
2022-11-12T04:20:30.356Z,38.53
2022-11-12T04:23:27.672Z,42.42
2022-11-12T04:26:12.766Z,38.25
2022-11-12T04:29:37.491Z,37.03
2022-11-12T04:32:04.310Z,38.60
2022-11-12T04:34:30.816Z,36.28
2022-11-12T04:37:25.826Z,43.42
2022-11-12T04:39:52.703Z,40.65
2022-11-12T04:42:37.747Z,37.60
2022-11-12T04:45:08.758Z,39.50
2022-11-12T04:47:38.145Z,36.67
2022-11-12T04:50:09.243Z,38.75
2022-11-12T04:52:35.674Z,38.50
2022-11-12T04:55:02.145Z,40.75
2022-11-12T04:57:28.649Z,39.67
2022-11-12T04:59:55.112Z,37.60
2022-11-12T05:03:17.396Z,38.15
2022-11-12T05:05:43.856Z,37.30
2022-11-12T05:08:10.293Z,36.63
2022-11-12T05:10:36.728Z,35.35
2022-11-12T05:13:03.165Z,36.25
2022-11-12T05:15:29.896Z,34.70
2022-11-12T05:17:56.550Z,33.38
2022-11-12T05:20:22.950Z,35.05
2022-11-12T05:23:04.976Z,34.67
2022-11-12T05:25:35.844Z,30.45
2022-11-12T05:28:24.350Z,32.47
2022-11-12T05:30:50.982Z,31.05
2022-11-12T05:33:17.605Z,27.33
2022-11-12T05:35:44.009Z,29.90
2022-11-12T05:38:10.409Z,27.20
2022-11-12T05:40:36.814Z,25.10
2022-11-12T05:43:03.212Z,28.73
2022-11-12T05:45:29.624Z,29.13
2022-11-12T05:47:56.095Z,28.17
2022-11-12T05:50:22.520Z,27.35
2022-11-12T05:52:48.931Z,29.15
2022-11-12T05:55:15.503Z,28.75
2022-11-12T05:57:41.941Z,29.23
2022-11-12T06:00:09.227Z,26.70
2022-11-12T06:02:35.705Z,28.42
2022-11-12T06:05:02.223Z,25.02
2022-11-12T06:07:28.626Z,29.08
2022-11-12T06:09:55.008Z,25.85
2022-11-12T06:12:21.463Z,25.25
2022-11-12T06:14:47.880Z,30.05
2022-11-12T06:17:14.297Z,23.60
2022-11-12T06:19:40.705Z,26.30
2022-11-12T06:22:07.165Z,33.72
2022-11-12T06:24:35.295Z,27.50
2022-11-12T06:27:02.258Z,28.45
2022-11-12T06:29:30.088Z,27.00
2022-11-12T06:31:56.694Z,27.20
2022-11-12T06:34:23.509Z,30.02
2022-11-12T06:36:49.978Z,29.95
2022-11-12T06:39:16.537Z,27.60
2022-11-12T06:41:43.027Z,28.67
2022-11-12T06:44:19.236Z,27.33
2022-11-12T06:46:48.791Z,29.17
2022-11-12T06:49:18.032Z,31.67
2022-11-12T06:51:44.590Z,28.30
2022-11-12T06:54:11.041Z,30.38
2022-11-12T06:56:37.517Z,30.55
2022-11-12T06:59:05.061Z,31.67
2022-11-12T07:01:32.012Z,28.33
2022-11-12T07:03:58.786Z,29.17
2022-11-12T07:06:25.559Z,30.58
2022-11-12T07:08:52.029Z,28.02
2022-11-12T07:11:19.658Z,29.25
2022-11-12T07:13:47.329Z,25.23
2022-11-12T07:16:21.002Z,27.38
2022-11-12T07:18:48.335Z,29.73
2022-11-12T07:21:17.483Z,28.13
2022-11-12T07:23:44.542Z,28.60
2022-11-12T07:26:22.057Z,28.33
2022-11-12T07:28:50.280Z,26.95
2022-11-12T07:31:20.981Z,25.63
2022-11-12T07:33:50.606Z,27.20
2022-11-12T07:36:19.585Z,25.60
2022-11-12T07:38:46.790Z,24.38
2022-11-12T07:41:18.756Z,25.73
2022-11-12T07:43:50.063Z,25.90
2022-11-12T07:46:18.477Z,24.27
2022-11-12T07:48:46.194Z,27.42
2022-11-12T07:51:16.825Z,22.60
2022-11-12T07:53:47.608Z,24.20
2022-11-12T07:56:17.083Z,23.45
2022-11-12T07:58:47.581Z,23.10
2022-11-12T08:01:39.080Z,23.80
2022-11-12T08:04:12.024Z,23.58
2022-11-12T08:06:47.250Z,22.38
2022-11-12T08:09:13.971Z,26.67
2022-11-12T08:11:42.037Z,24.85
2022-11-12T08:14:08.750Z,24.42
2022-11-12T08:16:35.312Z,26.08
2022-11-12T08:19:02.121Z,28.95
2022-11-12T08:21:29.180Z,33.35
2022-11-12T08:23:55.863Z,39.72
2022-11-12T08:26:25.306Z,44.90
2022-11-12T08:29:06.992Z,46.03
2022-11-12T08:31:34.964Z,50.80
2022-11-12T08:34:12.067Z,55.08
2022-11-12T08:36:39.265Z,69.15
2022-11-12T08:39:07.519Z,70.70
2022-11-12T08:41:34.217Z,76.80
2022-11-12T08:44:08.548Z,78.50
2022-11-12T08:46:35.588Z,80.38
2022-11-12T08:49:05.505Z,81.85
2022-11-12T08:51:31.985Z,82.15
2022-11-12T08:53:58.688Z,78.10
2022-11-12T08:56:25.156Z,70.45
2022-11-12T08:58:54.421Z,56.88
2022-11-12T09:01:23.631Z,52.40
2022-11-12T09:03:50.267Z,46.55
2022-11-12T09:06:17.069Z,44.78
2022-11-12T09:08:43.525Z,45.65
2022-11-12T09:11:13.760Z,43.33
2022-11-12T09:13:40.377Z,40.85
2022-11-12T09:16:09.037Z,43.13
2022-11-12T09:19:31.218Z,42.97
2022-11-12T09:21:59.767Z,37.00
2022-11-12T09:24:26.244Z,32.15
2022-11-12T09:26:53.930Z,31.50
2022-11-12T09:29:29.512Z,30.95
2022-11-12T09:31:56.075Z,27.73
2022-11-12T09:34:22.950Z,26.42
2022-11-12T09:36:49.575Z,27.50
2022-11-12T09:39:16.042Z,25.85
2022-11-12T09:41:43.243Z,25.63
2022-11-12T09:44:18.471Z,22.75
2022-11-12T09:46:49.331Z,22.77
2022-11-12T09:49:19.024Z,21.83
2022-11-12T09:51:53.731Z,21.75
2022-11-12T09:54:30.778Z,20.35
2022-11-12T09:56:57.603Z,20.88
2022-11-12T09:59:36.951Z,22.42
2022-11-12T10:02:19.711Z,21.73
2022-11-12T10:05:14.134Z,21.90
2022-11-12T10:08:07.322Z,19.83
2022-11-12T10:11:11.882Z,19.40
2022-11-12T10:14:02.363Z,18.75
2022-11-12T10:16:49.460Z,18.85
2022-11-12T10:19:24.821Z,18.25
2022-11-12T10:22:00.598Z,17.02
2022-11-12T10:24:34.363Z,18.17
2022-11-12T10:27:03.148Z,17.75
2022-11-12T10:29:42.539Z,18.30
2022-11-12T10:32:15.188Z,15.27
2022-11-12T10:34:41.745Z,15.23
2022-11-12T10:37:16.548Z,14.73
2022-11-12T10:39:47.565Z,13.52
2022-11-12T10:42:16.722Z,15.52
2022-11-12T10:44:44.520Z,15.18
2022-11-12T10:47:46.536Z,15.70
2022-11-12T10:50:37.392Z,14.65
2022-11-12T10:53:07.040Z,15.77
2022-11-12T10:55:36.876Z,16.52
2022-11-12T10:58:09.328Z,16.77
2022-11-12T11:00:37.343Z,17.42
2022-11-12T11:03:16.501Z,15.65
2022-11-12T11:05:56.423Z,18.23
2022-11-12T11:08:35.989Z,15.93
2022-11-12T11:11:21.851Z,18.00
2022-11-12T11:13:55.375Z,15.57
2022-11-12T11:16:27.639Z,15.63
2022-11-12T11:18:58.886Z,18.77
2022-11-12T11:24:30.285Z,17.15
2022-11-12T11:27:30.963Z,15.73
2022-11-12T11:30:15.709Z,17.42
2022-11-12T11:33:15.610Z,16.35
2022-11-12T11:36:18.077Z,14.95
2022-11-12T11:38:56.402Z,16.50
2022-11-12T11:41:47.880Z,16.00
2022-11-12T11:46:57.636Z,14.70
2022-11-12T11:50:05.063Z,14.50
2022-11-12T11:52:44.422Z,15.30
2022-11-12T11:55:49.876Z,14.23
2022-11-12T11:58:37.357Z,15.23
2022-11-12T12:01:36.405Z,15.77
2022-11-12T12:04:31.863Z,16.27
2022-11-12T12:07:37.438Z,14.43
2022-11-12T12:10:22.873Z,14.43
2022-11-12T12:13:09.619Z,15.85
2022-11-12T12:15:45.788Z,15.05
2022-11-12T12:18:36.312Z,14.60
2022-11-12T12:21:09.516Z,16.33
2022-11-12T12:23:52.146Z,15.60
2022-11-12T12:26:35.680Z,14.13
2022-11-12T12:29:17.932Z,14.73
2022-11-12T12:32:23.092Z,15.10
2022-11-12T12:35:18.347Z,14.90
2022-11-12T12:38:11.306Z,14.80
2022-11-12T12:40:44.760Z,16.05
2022-11-12T12:43:16.898Z,16.02
2022-11-12T12:45:46.290Z,15.45
2022-11-12T12:48:21.490Z,17.98
2022-11-12T12:50:50.242Z,15.43
2022-11-12T12:53:28.972Z,14.77
2022-11-12T12:56:06.901Z,15.80
2022-11-12T12:58:45.990Z,16.48
2022-11-12T13:01:21.508Z,20.40
2022-11-12T13:04:05.120Z,21.88
2022-11-12T13:06:35.282Z,22.83
2022-11-12T13:09:07.342Z,23.15
2022-11-12T13:12:01.331Z,22.00
2022-11-12T13:14:36.738Z,25.38
2022-11-12T13:17:12.632Z,24.05
2022-11-12T13:20:08.348Z,28.25
2022-11-12T13:22:50.539Z,29.88
2022-11-12T13:25:16.926Z,39.10
2022-11-12T13:27:43.293Z,30.35
2022-11-12T13:30:20.578Z,33.22
2022-11-12T13:32:46.980Z,36.25
2022-11-12T13:35:22.277Z,51.63
2022-11-12T13:38:07.551Z,37.90
2022-11-12T13:40:45.098Z,37.55
2022-11-12T13:43:17.589Z,34.40
2022-11-12T13:46:16.854Z,39.58
2022-11-12T13:48:52.558Z,38.63
2022-11-12T13:51:33.889Z,41.42
2022-11-12T13:56:32.830Z,41.65
2022-11-12T13:59:16.011Z,43.70
2022-11-12T14:01:43.211Z,48.47
2022-11-12T14:04:18.991Z,47.67
2022-11-12T14:07:17.422Z,45.55
2022-11-12T14:10:29.763Z,43.63
2022-11-12T14:13:20.897Z,47.08
2022-11-12T14:15:59.379Z,47.00
2022-11-12T14:18:32.035Z,44.03
2022-11-12T14:21:04.542Z,45.45
2022-11-12T14:23:31.092Z,48.47
2022-11-12T14:25:57.561Z,46.17
2022-11-12T14:28:35.238Z,47.20
2022-11-12T14:31:02.716Z,50.22
2022-11-12T14:33:31.680Z,48.15
2022-11-12T14:36:07.670Z,50.88
2022-11-12T14:38:39.875Z,48.30
2022-11-12T14:41:15.877Z,50.92
2022-11-12T14:43:48.093Z,51.78
2022-11-12T14:46:38.912Z,48.67
2022-11-12T14:49:16.959Z,46.10
2022-11-12T14:52:09.483Z,50.97
2022-11-12T14:54:42.641Z,48.22
2022-11-12T14:57:18.318Z,47.17
2022-11-12T14:59:44.979Z,48.80
2022-11-12T15:05:11.457Z,51.45
2022-11-12T15:07:59.854Z,50.92
2022-11-12T15:10:40.235Z,49.70
2022-11-12T15:13:15.648Z,49.38
2022-11-12T15:15:53.289Z,49.88
2022-11-12T15:18:29.532Z,51.97
2022-11-12T15:21:19.667Z,50.65
2022-11-12T15:23:51.845Z,49.17
2022-11-12T15:26:39.697Z,51.00
2022-11-12T15:29:19.031Z,49.75
2022-11-12T15:31:51.157Z,49.50
2022-11-12T15:34:30.788Z,49.20
2022-11-12T15:37:00.467Z,55.55
2022-11-12T15:39:28.794Z,55.13
2022-11-12T15:42:04.328Z,54.55
2022-11-12T15:44:34.936Z,54.75
2022-11-12T15:47:03.058Z,56.78
2022-11-12T15:49:29.636Z,61.60
2022-11-12T15:51:56.144Z,60.85
2022-11-12T15:54:22.564Z,62.47
2022-11-12T15:56:49.819Z,60.92
2022-11-12T15:59:17.848Z,59.15
2022-11-12T16:01:44.791Z,56.97
2022-11-12T16:04:12.759Z,59.63
2022-11-12T16:06:39.289Z,60.95
2022-11-12T16:09:05.802Z,63.92
2022-11-12T16:11:38.253Z,58.85
2022-11-12T16:14:07.674Z,68.80
2022-11-12T16:16:34.894Z,65.57
2022-11-12T16:19:01.626Z,60.42
2022-11-12T16:21:28.111Z,58.10
2022-11-12T16:23:54.681Z,60.78
2022-11-12T16:26:28.009Z,69.75
2022-11-12T16:28:54.544Z,75.78
2022-11-12T16:31:21.884Z,77.13
2022-11-12T16:33:48.585Z,74.43
2022-11-12T16:36:22.015Z,69.47
2022-11-12T16:38:54.847Z,68.10
2022-11-12T16:41:23.389Z,63.55
2022-11-12T16:43:55.309Z,66.50
2022-11-12T16:46:32.769Z,60.95
2022-11-12T16:48:59.461Z,61.53
2022-11-12T16:51:26.269Z,61.92
2022-11-12T16:53:52.720Z,69.65
2022-11-12T16:56:21.063Z,59.75
2022-11-12T16:58:48.591Z,62.35
2022-11-12T17:01:24.077Z,60.30
2022-11-12T17:03:55.602Z,57.72
2022-11-12T17:06:24.977Z,58.35
2022-11-12T17:08:55.243Z,60.42
2022-11-12T17:11:23.913Z,62.88
2022-11-12T17:13:50.873Z,65.30
2022-11-12T17:16:17.586Z,83.30
2022-11-12T17:18:44.110Z,98.28
2022-11-12T17:21:15.862Z,93.55
2022-11-12T17:23:45.664Z,87.55
2022-11-12T17:26:24.908Z,83.38
2022-11-12T17:28:55.702Z,83.85
2022-11-12T17:31:24.492Z,79.97
2022-11-12T17:33:52.472Z,78.40
2022-11-12T17:36:22.559Z,75.28
2022-11-12T17:38:53.127Z,79.10
2022-11-12T17:41:20.907Z,74.35
2022-11-12T17:43:47.358Z,73.35
2022-11-12T17:46:14.877Z,72.80
2022-11-12T17:48:41.540Z,71.07
2022-11-12T17:51:15.087Z,72.30
2022-11-12T17:53:41.966Z,79.57
2022-11-12T17:56:19.706Z,76.20
2022-11-12T17:58:47.357Z,85.07
2022-11-12T18:01:18.458Z,78.07
2022-11-12T18:03:47.927Z,75.63
2022-11-12T18:06:17.163Z,85.10
2022-11-12T18:08:44.125Z,85.80
2022-11-12T18:11:12.544Z,86.43
2022-11-12T18:13:39.167Z,90.20
2022-11-12T18:16:17.856Z,87.13
2022-11-12T18:18:45.002Z,87.25
2022-11-12T18:21:12.294Z,93.50
2022-11-12T18:23:47.766Z,90.57
2022-11-12T18:26:15.916Z,86.28
2022-11-12T18:28:42.568Z,80.65
2022-11-12T18:31:11.642Z,78.47
2022-11-12T18:33:38.737Z,75.43
2022-11-12T18:36:08.438Z,83.45
2022-11-12T18:38:35.986Z,84.80
2022-11-12T18:41:04.786Z,89.60
2022-11-12T18:43:31.811Z,84.07
2022-11-12T18:46:00.197Z,80.10
2022-11-12T18:48:31.845Z,81.80
2022-11-12T18:51:03.671Z,82.13
2022-11-12T18:53:30.459Z,84.65
2022-11-12T18:56:00.512Z,83.15
2022-11-12T18:58:33.678Z,81.20
2022-11-12T19:01:10.316Z,84.15
2022-11-12T19:03:37.086Z,92.05
2022-11-12T19:06:05.632Z,92.72
2022-11-12T19:08:32.717Z,88.65
2022-11-12T19:11:00.737Z,82.55
2022-11-12T19:13:28.383Z,89.68
2022-11-12T19:15:55.971Z,88.18
2022-11-12T19:18:22.391Z,83.88
2022-11-12T19:20:49.091Z,87.45
2022-11-12T19:23:15.659Z,81.60
2022-11-12T19:25:42.154Z,84.75
2022-11-12T19:28:08.577Z,84.20
2022-11-12T19:30:35.050Z,85.32
2022-11-12T19:33:01.585Z,83.93
2022-11-12T19:35:28.056Z,84.20
2022-11-12T19:37:54.456Z,90.45
2022-11-12T19:40:20.926Z,81.50
2022-11-12T19:42:48.029Z,86.15
2022-11-12T19:45:14.562Z,87.53
2022-11-12T19:47:41.055Z,88.25
2022-11-12T19:50:07.985Z,82.57
2022-11-12T19:52:34.388Z,84.10
2022-11-12T19:55:00.983Z,85.22
2022-11-12T19:57:29.004Z,92.68
2022-11-12T19:59:55.593Z,92.80
2022-11-12T20:02:22.069Z,90.20
2022-11-12T20:04:48.499Z,87.65
2022-11-12T20:07:15.096Z,86.05
2022-11-12T20:09:41.581Z,86.35
2022-11-12T20:12:08.357Z,80.75
2022-11-12T20:14:34.761Z,88.43
2022-11-12T20:17:01.200Z,77.25
2022-11-12T20:19:27.863Z,76.55
2022-11-12T20:21:54.338Z,79.25
2022-11-12T20:24:20.820Z,64.65
2022-11-12T20:26:47.262Z,66.00
2022-11-12T20:29:13.689Z,63.90
2022-11-12T20:31:41.865Z,69.78
2022-11-12T20:34:08.301Z,63.85
2022-11-12T20:36:34.728Z,67.80
2022-11-12T20:39:02.102Z,57.15
2022-11-12T20:41:28.642Z,54.15
2022-11-12T20:44:00.263Z,55.88
2022-11-12T20:46:27.492Z,57.05
2022-11-12T20:48:54.811Z,59.45
2022-11-12T20:51:28.475Z,54.00
2022-11-12T20:54:00.079Z,53.78
2022-11-12T20:56:28.545Z,60.95
2022-11-12T20:58:55.018Z,63.20
2022-11-12T21:01:23.320Z,74.25
2022-11-12T21:03:49.894Z,80.63
2022-11-12T21:06:19.309Z,80.78
2022-11-12T21:08:46.191Z,91.85
2022-11-12T21:11:18.576Z,81.68
2022-11-12T21:13:45.267Z,75.10
2022-11-12T21:16:13.493Z,73.03
2022-11-12T21:18:40.571Z,79.22
2022-11-12T21:21:09.915Z,78.50
2022-11-12T21:23:40.218Z,81.65
2022-11-12T21:26:09.891Z,76.30
2022-11-12T21:28:38.171Z,84.50
2022-11-12T21:31:07.049Z,71.40
2022-11-12T21:33:33.973Z,80.57
2022-11-12T21:36:01.379Z,75.30
2022-11-12T21:38:28.701Z,77.80
2022-11-12T21:41:20.213Z,76.18
2022-11-12T21:43:47.399Z,78.50
2022-11-12T21:46:22.211Z,80.57
2022-11-12T21:48:54.890Z,73.78
2022-11-12T21:51:32.327Z,74.55
2022-11-12T21:54:04.008Z,72.22
2022-11-12T21:56:31.176Z,72.00
2022-11-12T21:59:00.228Z,71.30
2022-11-12T22:01:32.065Z,73.10
2022-11-12T22:03:59.727Z,74.75
2022-11-12T22:06:29.158Z,64.40
2022-11-12T22:08:57.396Z,68.03
2022-11-12T22:11:25.108Z,67.82
2022-11-12T22:13:51.560Z,66.63
2022-11-12T22:16:23.296Z,63.85
2022-11-12T22:18:51.721Z,58.60
2022-11-12T22:21:21.565Z,58.22
2022-11-12T22:23:48.562Z,59.97
2022-11-12T22:26:17.371Z,58.85
2022-11-12T22:28:45.664Z,53.10
2022-11-12T22:31:15.773Z,53.17
2022-11-12T22:33:42.751Z,61.15
2022-11-12T22:36:12.302Z,47.75
2022-11-12T22:38:40.968Z,49.28
2022-11-12T22:41:09.895Z,48.05
2022-11-12T22:43:39.233Z,52.95
2022-11-12T22:46:16.645Z,55.47
2022-11-12T22:48:43.397Z,60.35
2022-11-12T22:51:14.505Z,58.83
2022-11-12T22:53:41.255Z,56.92
2022-11-12T22:56:09.843Z,57.85
2022-11-12T22:58:37.854Z,57.97
2022-11-12T23:01:09.641Z,53.60
2022-11-12T23:03:37.746Z,47.95
2022-11-12T23:06:05.987Z,46.75
2022-11-12T23:08:35.791Z,42.10
2022-11-12T23:11:08.025Z,41.95
2022-11-12T23:13:35.101Z,40.83
2022-11-12T23:16:02.226Z,39.80
2022-11-12T23:18:28.943Z,40.95
2022-11-12T23:21:01.959Z,35.80
2022-11-12T23:23:28.420Z,40.72
2022-11-12T23:25:54.850Z,39.30
2022-11-12T23:28:21.272Z,38.80
2022-11-12T23:30:50.860Z,40.42
2022-11-12T23:33:17.354Z,41.13
2022-11-12T23:35:43.811Z,38.35
2022-11-12T23:38:10.254Z,37.28
2022-11-12T23:40:36.743Z,38.95
2022-11-12T23:43:03.186Z,38.65
2022-11-12T23:45:29.683Z,40.80
2022-11-12T23:47:57.129Z,38.28
2022-11-12T23:50:23.582Z,41.33
2022-11-12T23:52:50.012Z,39.30
2022-11-12T23:55:16.562Z,40.45
2022-11-12T23:57:43.026Z,41.95
